Time;durP1;ratioP1;P1;durP2;ratioP2;P2;SDS_P1;SDS_P2;PMS_P1;PMS_P2;Temp;Humidity;BMP_temperature;BMP_pressure;BME280_temperature;BME280_humidity;BME280_pressure;Samples;Min_cycle;Max_cycle;Signal;HPM_P1;HPM_P2
2022/12/05 00:01:19;;;;;;;34.78;24.08;;;5.40;99.90;;;;;;5033505;28;20029;-84
2022/12/05 00:03:47;;;;;;;33.92;24.10;;;5.30;99.90;;;;;;5033285;28;20021;-85
2022/12/05 00:06:13;;;;;;;30.27;23.13;;;5.40;99.90;;;;;;5033210;28;20175;-84
2022/12/05 00:08:38;;;;;;;33.55;23.60;;;5.30;99.90;;;;;;5033511;28;20571;-84
2022/12/05 00:11:10;;;;;;;32.70;24.67;;;5.20;99.90;;;;;;5033318;28;20398;-84
2022/12/05 00:13:38;;;;;;;32.08;23.23;;;5.10;99.90;;;;;;5033428;28;20474;-84
2022/12/05 00:16:07;;;;;;;33.15;24.17;;;5.00;99.90;;;;;;5033059;28;20034;-84
2022/12/05 00:18:32;;;;;;;39.80;25.38;;;4.90;99.90;;;;;;5033212;28;20056;-84
2022/12/05 00:20:58;;;;;;;33.20;23.98;;;4.90;99.90;;;;;;5031881;28;20474;-84
2022/12/05 00:23:24;;;;;;;28.75;22.23;;;4.80;99.90;;;;;;5033257;28;20032;-84
2022/12/05 00:25:49;;;;;;;32.45;23.90;;;4.70;99.90;;;;;;5033000;28;20033;-84
2022/12/05 00:28:15;;;;;;;33.55;24.83;;;4.70;99.90;;;;;;5032826;28;20032;-83
2022/12/05 00:30:40;;;;;;;34.17;25.70;;;4.70;99.90;;;;;;5032778;28;20416;-83
2022/12/05 00:33:06;;;;;;;40.00;27.00;;;4.60;99.90;;;;;;5039503;28;20028;-83
2022/12/05 00:35:33;;;;;;;33.80;26.33;;;4.70;99.90;;;;;;5053220;28;20066;-85
2022/12/05 00:37:58;;;;;;;29.27;23.45;;;4.70;99.90;;;;;;5053159;28;20500;-84
2022/12/05 00:40:24;;;;;;;32.40;25.45;;;4.90;99.90;;;;;;5052944;28;20021;-83
2022/12/05 00:42:50;;;;;;;34.55;26.05;;;4.70;99.90;;;;;;5053095;28;20021;-84
2022/12/05 00:45:15;;;;;;;31.80;25.10;;;4.60;99.90;;;;;;5052693;28;20108;-83
2022/12/05 00:47:41;;;;;;;33.03;24.90;;;4.60;99.90;;;;;;5052858;28;20124;-83
2022/12/05 00:50:07;;;;;;;37.45;25.30;;;4.60;99.90;;;;;;5052977;28;20036;-83
2022/12/05 00:52:33;;;;;;;29.48;23.70;;;4.50;99.90;;;;;;5052801;28;20036;-84
2022/12/05 00:54:58;;;;;;;37.65;27.63;;;4.40;99.90;;;;;;5052616;28;20025;-83
2022/12/05 00:57:24;;;;;;;34.80;26.80;;;4.40;99.90;;;;;;5051351;28;20048;-84
2022/12/05 00:59:49;;;;;;;38.00;26.00;;;4.40;99.90;;;;;;5052385;28;20025;-84
2022/12/05 01:02:15;;;;;;;31.70;24.58;;;4.10;99.90;;;;;;5051354;28;20025;-84
2022/12/05 01:04:41;;;;;;;31.25;23.48;;;4.10;99.90;;;;;;5052709;28;20033;-84
2022/12/05 01:07:06;;;;;;;33.85;23.73;;;4.10;99.90;;;;;;5051248;28;20552;-83
2022/12/05 01:09:32;;;;;;;29.92;22.65;;;4.10;99.90;;;;;;5052835;28;20031;-84
2022/12/05 01:11:58;;;;;;;32.75;23.15;;;4.10;99.90;;;;;;5052631;28;20126;-83
2022/12/05 01:14:24;;;;;;;35.83;24.83;;;4.10;99.90;;;;;;5050703;28;20137;-84
2022/12/05 01:16:52;;;;;;;35.00;25.05;;;4.00;99.90;;;;;;5052588;28;20029;-83
2022/12/05 01:19:24;;;;;;;31.48;23.20;;;4.00;99.90;;;;;;5038826;28;20486;-82
2022/12/05 01:21:50;;;;;;;33.50;23.55;;;3.90;99.90;;;;;;5036455;28;20021;-84
2022/12/05 01:24:18;;;;;;;35.45;25.38;;;3.90;99.90;;;;;;5036661;28;20482;-83
2022/12/05 01:26:44;;;;;;;35.45;25.55;;;3.90;99.90;;;;;;5036509;28;20041;-84
2022/12/05 01:29:13;;;;;;;30.20;23.60;;;3.80;99.90;;;;;;5036311;28;20022;-84
2022/12/05 01:31:40;;;;;;;35.17;24.98;;;3.70;99.90;;;;;;5036622;28;20025;-84
2022/12/05 01:34:08;;;;;;;34.65;24.13;;;3.80;99.90;;;;;;5051119;28;20381;-83
2022/12/05 01:36:35;;;;;;;33.50;23.95;;;3.70;99.90;;;;;;5056502;28;20397;-84
2022/12/05 01:39:01;;;;;;;34.22;24.85;;;3.70;99.90;;;;;;5056365;28;20025;-83
2022/12/05 01:41:30;;;;;;;32.55;24.05;;;3.60;99.90;;;;;;5056321;28;20032;-83
2022/12/05 01:43:59;;;;;;;37.45;24.58;;;3.60;99.90;;;;;;5056075;28;20033;-84
2022/12/05 01:46:26;;;;;;;39.50;26.92;;;3.60;99.90;;;;;;5054865;28;20078;-83
2022/12/05 01:49:15;;;;;;;37.80;25.63;;;3.60;99.90;;;;;;5054882;28;20021;-84
2022/12/05 01:51:46;;;;;;;37.65;27.27;;;3.60;99.90;;;;;;5055922;28;20146;-83
2022/12/05 01:54:13;;;;;;;38.88;26.65;;;3.60;99.90;;;;;;5056169;28;20389;-83
2022/12/05 01:56:43;;;;;;;39.70;26.40;;;3.50;99.90;;;;;;5056318;28;20111;-83
2022/12/05 01:59:10;;;;;;;38.63;26.92;;;3.50;99.90;;;;;;5055652;28;20035;-84
2022/12/05 02:01:36;;;;;;;37.70;23.88;;;3.50;99.90;;;;;;5055854;28;20029;-84
2022/12/05 02:04:03;;;;;;;39.97;25.55;;;3.50;99.90;;;;;;5055886;28;20035;-83
2022/12/05 02:06:30;;;;;;;34.75;23.52;;;3.50;99.90;;;;;;5055927;28;20056;-84
2022/12/05 02:08:56;;;;;;;38.33;25.17;;;3.40;99.90;;;;;;5055912;28;20031;-83
2022/12/05 02:11:24;;;;;;;38.17;25.48;;;3.20;99.90;;;;;;5054538;28;20112;-84
2022/12/05 02:13:59;;;;;;;44.30;30.00;;;3.20;99.90;;;;;;5055509;28;20033;-83
2022/12/05 02:16:54;;;;;;;43.85;27.63;;;3.30;99.90;;;;;;5055744;28;20493;-84
2022/12/05 02:19:44;;;;;;;55.20;25.52;;;3.50;99.90;;;;;;5040068;28;20041;-84
2022/12/05 02:22:46;;;;;;;40.45;23.63;;;3.40;99.90;;;;;;5035397;28;20021;-83
2022/12/05 02:25:28;;;;;;;45.92;25.13;;;3.60;99.90;;;;;;5041137;28;20049;-83
2022/12/05 02:28:08;;;;;;;75.97;25.17;;;3.80;99.90;;;;;;5035151;28;20043;-84
2022/12/05 02:30:52;;;;;;;50.70;25.17;;;3.70;99.90;;;;;;5035347;28;20022;-83
2022/12/05 02:33:22;;;;;;;52.03;25.08;;;3.80;99.90;;;;;;5043623;28;20044;-84
2022/12/05 02:36:10;;;;;;;63.17;23.83;;;3.90;99.90;;;;;;5055207;28;20488;-84
2022/12/05 02:39:09;;;;;;;79.25;25.02;;;3.90;99.90;;;;;;5055286;28;20035;-83
2022/12/05 02:42:04;;;;;;;80.60;24.73;;;3.80;99.90;;;;;;5045779;28;20112;-84
2022/12/05 02:44:41;;;;;;;63.13;22.25;;;3.70;99.90;;;;;;5053945;28;20477;-83
2022/12/05 02:47:08;;;;;;;177.18;25.27;;;3.60;99.90;;;;;;5054875;28;20554;-83
2022/12/05 02:49:36;;;;;;;170.85;24.60;;;3.60;99.90;;;;;;5055002;28;20025;-83
2022/12/05 02:52:06;;;;;;;181.82;24.88;;;3.40;99.90;;;;;;5053682;28;20428;-83
2022/12/05 02:54:38;;;;;;;155.38;25.00;;;3.30;99.90;;;;;;5053822;28;20519;-84
2022/12/05 02:57:05;;;;;;;160.50;25.05;;;3.20;99.90;;;;;;5054583;28;20033;-84
2022/12/05 02:59:31;;;;;;;139.07;24.92;;;3.50;99.90;;;;;;5055069;28;20063;-84
2022/12/05 03:01:57;;;;;;;204.45;27.58;;;3.70;99.90;;;;;;5054862;28;20041;-83
2022/12/05 03:04:25;;;;;;;161.45;24.65;;;3.70;99.90;;;;;;5054865;28;20092;-83
2022/12/05 03:06:56;;;;;;;240.38;26.45;;;3.60;99.90;;;;;;5054682;28;20095;-83
2022/12/05 03:09:40;;;;;;;182.48;25.92;;;3.30;99.90;;;;;;5054710;28;20393;-84
2022/12/05 03:12:32;;;;;;;184.27;25.50;;;3.30;99.90;;;;;;5054761;28;20029;-84
2022/12/05 03:15:21;;;;;;;188.65;23.77;;;3.30;99.90;;;;;;5053460;28;20531;-83
2022/12/05 03:18:14;;;;;;;177.50;23.35;;;3.30;99.90;;;;;;5051556;28;20041;-84
2022/12/05 03:20:53;;;;;;;169.73;23.73;;;3.20;99.90;;;;;;5031481;28;20432;-83
2022/12/05 03:23:22;;;;;;;146.55;22.92;;;3.60;99.90;;;;;;5034497;28;20084;-83
2022/12/05 03:26:20;;;;;;;106.13;22.80;;;3.60;99.90;;;;;;5033793;28;20049;-84
2022/12/05 03:29:32;;;;;;;94.75;22.38;;;3.70;99.90;;;;;;5034642;28;20107;-84
2022/12/05 03:32:23;;;;;;;122.78;24.45;;;3.80;99.90;;;;;;5034911;28;20033;-83
2022/12/05 03:34:49;;;;;;;59.70;22.67;;;3.80;99.90;;;;;;5046190;28;20036;-83
2022/12/05 03:37:26;;;;;;;70.85;22.42;;;3.80;99.90;;;;;;5013338;28;20030;-84
2022/12/05 03:40:21;;;;;;;71.15;22.85;;;3.70;99.90;;;;;;5014186;28;20386;-84
2022/12/05 03:42:59;;;;;;;45.85;22.42;;;3.60;99.90;;;;;;4992632;28;20046;-83
2022/12/05 03:45:32;;;;;;;45.50;22.80;;;3.70;99.90;;;;;;4992905;28;20089;-83
2022/12/05 03:48:12;;;;;;;58.28;22.80;;;3.70;99.90;;;;;;4992517;28;20042;-83
2022/12/05 03:50:43;;;;;;;36.83;21.13;;;3.80;99.90;;;;;;4992571;28;20109;-83
2022/12/05 03:53:21;;;;;;;46.25;23.60;;;4.00;99.90;;;;;;4992630;28;20479;-83
2022/12/05 03:55:54;;;;;;;40.30;22.77;;;3.90;99.90;;;;;;5008738;28;20054;-83
2022/12/05 03:58:27;;;;;;;48.55;23.38;;;3.90;99.90;;;;;;4992456;28;20129;-84
2022/12/05 04:00:54;;;;;;;39.15;22.50;;;3.70;99.90;;;;;;4992750;28;20117;-83
2022/12/05 04:03:45;;;;;;;55.03;24.40;;;3.70;99.90;;;;;;4992439;28;20030;-83
2022/12/05 04:06:44;;;;;;;41.40;23.40;;;3.90;99.90;;;;;;4992228;28;20050;-84
2022/12/05 04:09:28;;;;;;;32.25;20.73;;;3.90;99.90;;;;;;4972533;28;20443;-84
2022/12/05 04:12:00;;;;;;;36.65;21.05;;;3.90;99.90;;;;;;4972723;28;20035;-84
2022/12/05 04:14:38;;;;;;;47.92;23.60;;;4.00;99.90;;;;;;4956524;28;20062;-83
2022/12/05 04:17:10;;;;;;;42.03;23.88;;;3.80;99.90;;;;;;4972831;28;20074;-84
2022/12/05 04:22:37;;;;;;;34.45;21.38;;;4.10;99.90;;;;;;4991978;28;20042;-83
2022/12/05 04:28:05;;;;;;;34.22;21.85;;;4.10;99.90;;;;;;4991849;28;20037;-84
2022/12/05 04:30:46;;;;;;;36.15;22.23;;;4.10;99.90;;;;;;4991802;28;20046;-83
2022/12/05 04:33:53;;;;;;;32.83;20.75;;;3.90;99.90;;;;;;4992048;28;20544;-84
2022/12/05 04:36:32;;;;;;;32.83;20.05;;;4.00;99.90;;;;;;4991955;28;20026;-83
2022/12/05 04:39:04;;;;;;;36.40;22.70;;;3.90;99.90;;;;;;4975147;28;20035;-84
2022/12/05 04:41:40;;;;;;;35.25;22.58;;;3.80;99.90;;;;;;4991711;28;20034;-83
2022/12/05 04:44:12;;;;;;;33.38;20.98;;;3.90;99.90;;;;;;4996925;28;20029;-84
2022/12/05 04:46:40;;;;;;;36.40;21.88;;;4.00;99.90;;;;;;5013377;28;20107;-83
2022/12/05 04:49:09;;;;;;;36.40;21.88;;;4.00;99.90;;;;;;5013523;28;20030;-83
2022/12/05 04:51:37;;;;;;;29.92;20.50;;;3.80;99.90;;;;;;5012981;28;20482;-84
2022/12/05 04:54:51;;;;;;;36.90;23.15;;;3.80;99.90;;;;;;5011475;28;20021;-84
2022/12/05 04:57:54;;;;;;;30.98;20.15;;;3.90;99.90;;;;;;5013293;28;20033;-83
2022/12/05 05:00:20;;;;;;;32.85;20.48;;;4.10;99.90;;;;;;4971925;28;20121;-84
2022/12/05 05:03:02;;;;;;;27.95;18.60;;;4.20;99.90;;;;;;4972069;28;20039;-83
2022/12/05 05:05:29;;;;;;;28.70;18.63;;;3.90;99.90;;;;;;4972150;28;20473;-83
2022/12/05 05:07:55;;;;;;;28.08;18.85;;;3.80;99.90;;;;;;4971784;28;20173;-83
2022/12/05 05:11:08;;;;;;;29.63;19.55;;;3.80;99.90;;;;;;4972135;28;20035;-84
2022/12/05 05:13:34;;;;;;;27.27;18.73;;;3.90;99.90;;;;;;4965220;28;20038;-84
2022/12/05 05:15:59;;;;;;;26.92;18.30;;;3.60;99.90;;;;;;4971903;28;20031;-84
2022/12/05 05:18:25;;;;;;;26.27;18.35;;;3.60;99.90;;;;;;4979745;28;20517;-84
2022/12/05 05:20:50;;;;;;;26.10;18.27;;;3.60;99.90;;;;;;4991001;28;20033;-83
2022/12/05 05:23:16;;;;;;;24.67;17.67;;;3.60;99.90;;;;;;4991353;28;20042;-84
2022/12/05 05:25:42;;;;;;;27.48;18.10;;;3.60;99.90;;;;;;4990923;28;20138;-84
2022/12/05 05:28:07;;;;;;;46.33;29.48;;;3.60;99.90;;;;;;4991266;28;20033;-84
2022/12/05 05:30:33;;;;;;;28.05;20.15;;;3.70;99.90;;;;;;4991354;28;20042;-83
2022/12/05 05:32:59;;;;;;;27.60;19.73;;;3.70;99.90;;;;;;4996390;28;20074;-83
2022/12/05 05:35:25;;;;;;;26.35;18.35;;;3.70;99.90;;;;;;5024691;28;20119;-83
2022/12/05 05:37:50;;;;;;;25.25;18.73;;;3.70;99.90;;;;;;5052602;28;20159;-83
2022/12/05 05:40:17;;;;;;;28.05;18.50;;;3.80;99.90;;;;;;5052760;28;20033;-84
2022/12/05 05:42:48;;;;;;;26.13;18.23;;;3.80;99.90;;;;;;5052324;28;20036;-84
2022/12/05 05:45:14;;;;;;;26.88;18.70;;;3.90;99.90;;;;;;5052802;28;20029;-83
2022/12/05 05:47:41;;;;;;;27.67;19.70;;;3.90;99.90;;;;;;5052213;28;20512;-83
2022/12/05 05:50:08;;;;;;;33.70;23.70;;;4.00;99.90;;;;;;5051916;28;20060;-84
2022/12/05 05:52:35;;;;;;;39.60;27.05;;;4.10;99.90;;;;;;5051187;28;20049;-84
2022/12/05 05:55:02;;;;;;;45.45;31.17;;;4.20;99.90;;;;;;5051951;28;20021;-84
2022/12/05 05:57:27;;;;;;;34.67;23.98;;;4.30;99.90;;;;;;5052891;28;20123;-83
2022/12/05 05:59:53;;;;;;;38.53;23.10;;;4.30;99.90;;;;;;5052605;28;20393;-84
2022/12/05 06:02:19;;;;;;;31.80;21.60;;;4.50;99.90;;;;;;5052295;28;20112;-84
2022/12/05 06:04:44;;;;;;;36.13;22.05;;;4.30;99.90;;;;;;5053695;28;20095;-82
2022/12/05 06:07:10;;;;;;;33.15;21.92;;;4.20;99.90;;;;;;5056109;28;20115;-84
2022/12/05 06:09:36;;;;;;;37.15;22.33;;;4.30;99.90;;;;;;5055782;28;20025;-83
2022/12/05 06:12:01;;;;;;;32.30;22.75;;;4.30;99.90;;;;;;5055868;28;20043;-83
2022/12/05 06:14:27;;;;;;;32.75;20.83;;;4.30;99.90;;;;;;5056153;28;20067;-83
2022/12/05 06:16:52;;;;;;;32.08;20.88;;;4.10;99.90;;;;;;5055681;28;20021;-83
2022/12/05 06:19:18;;;;;;;30.48;21.27;;;4.00;99.90;;;;;;5040076;28;20032;-85
2022/12/05 06:21:44;;;;;;;31.60;21.23;;;4.00;99.90;;;;;;5035823;28;20432;-84
2022/12/05 06:24:09;;;;;;;30.83;20.60;;;4.20;99.90;;;;;;5035721;28;20017;-84
2022/12/05 06:26:35;;;;;;;26.20;19.00;;;4.40;99.90;;;;;;5034133;28;20053;-84
2022/12/05 06:29:00;;;;;;;27.15;19.70;;;4.00;99.90;;;;;;5034436;28;20049;-83
2022/12/05 06:31:29;;;;;;;31.02;20.63;;;4.10;99.90;;;;;;5035610;28;20561;-84
2022/12/05 06:33:58;;;;;;;29.85;20.27;;;4.30;99.90;;;;;;5046898;28;20064;-84
2022/12/05 06:36:23;;;;;;;31.52;20.80;;;4.30;99.90;;;;;;5053988;28;20032;-83
2022/12/05 06:38:49;;;;;;;32.60;20.35;;;4.30;99.90;;;;;;5055471;28;20481;-84
2022/12/05 06:41:18;;;;;;;33.15;21.85;;;4.30;99.90;;;;;;5053817;28;20048;-84
2022/12/05 06:43:44;;;;;;;31.58;20.38;;;4.40;99.90;;;;;;5055127;28;20017;-84
2022/12/05 06:46:11;;;;;;;28.58;19.55;;;4.50;99.90;;;;;;5055122;28;20029;-84
2022/12/05 06:48:37;;;;;;;29.63;20.30;;;4.50;99.90;;;;;;5054528;28;20230;-84
2022/12/05 06:51:03;;;;;;;25.88;18.45;;;4.50;99.90;;;;;;5055069;28;20052;-84
2022/12/05 06:53:29;;;;;;;26.05;19.00;;;4.50;99.90;;;;;;5054893;28;20029;-84
2022/12/05 06:56:00;;;;;;;29.90;21.30;;;4.60;99.90;;;;;;5055045;28;20033;-84
2022/12/05 06:58:27;;;;;;;28.02;20.13;;;4.40;99.90;;;;;;5054841;28;20039;-83
2022/12/05 07:03:37;;;;;;;31.55;21.73;;;4.30;99.90;;;;;;5054621;28;20150;-84
2022/12/05 07:06:04;;;;;;;31.15;22.15;;;4.40;99.90;;;;;;5055088;28;20120;-84
2022/12/05 07:08:31;;;;;;;27.35;19.42;;;4.40;99.90;;;;;;5054784;28;20021;-84
2022/12/05 07:10:57;;;;;;;32.97;20.88;;;4.30;99.90;;;;;;5054742;28;20028;-84
2022/12/05 07:13:22;;;;;;;29.77;19.85;;;4.30;99.90;;;;;;5054655;28;20025;-84
2022/12/05 07:15:49;;;;;;;31.33;22.08;;;4.20;99.90;;;;;;5052234;28;20029;-84
2022/12/05 07:18:16;;;;;;;32.03;21.15;;;4.20;99.90;;;;;;5054151;28;20025;-84
2022/12/05 07:20:42;;;;;;;29.10;21.20;;;4.10;99.90;;;;;;5054497;28;20124;-84
2022/12/05 07:23:09;;;;;;;32.88;22.13;;;4.10;99.90;;;;;;5054593;28;20016;-84
2022/12/05 07:25:39;;;;;;;31.30;22.08;;;4.10;99.90;;;;;;5052993;28;20509;-84
2022/12/05 07:28:05;;;;;;;31.90;21.75;;;4.20;99.90;;;;;;5054403;28;20032;-84
2022/12/05 07:30:30;;;;;;;53.42;30.20;;;4.30;99.90;;;;;;5054671;28;20027;-84
2022/12/05 07:32:56;;;;;;;72.53;41.75;;;4.40;99.90;;;;;;5048927;28;20029;-84
2022/12/05 07:35:21;;;;;;;158.82;84.90;;;4.40;99.90;;;;;;5034580;28;20018;-84
2022/12/05 07:37:47;;;;;;;79.18;47.40;;;4.50;99.90;;;;;;5034301;28;20022;-84
2022/12/05 07:40:13;;;;;;;114.63;67.47;;;4.50;99.90;;;;;;5034518;28;20401;-84
2022/12/05 07:42:39;;;;;;;116.68;71.85;;;4.60;99.90;;;;;;5034654;28;20073;-85
2022/12/05 07:45:05;;;;;;;91.25;56.65;;;4.70;99.90;;;;;;5034023;28;20494;-85
2022/12/05 07:47:30;;;;;;;59.28;38.33;;;4.70;99.90;;;;;;5033700;28;20048;-84
2022/12/05 07:49:56;;;;;;;54.10;32.80;;;4.70;99.90;;;;;;5034292;28;20021;-84
2022/12/05 07:52:22;;;;;;;48.22;29.90;;;4.70;99.90;;;;;;5032616;28;20032;-84
2022/12/05 07:54:47;;;;;;;60.28;36.30;;;4.80;99.90;;;;;;5034309;28;20022;-84
2022/12/05 07:57:13;;;;;;;47.90;29.90;;;4.90;99.90;;;;;;5034047;28;20409;-84
2022/12/05 07:59:38;;;;;;;48.47;30.00;;;4.90;99.90;;;;;;5033862;28;20071;-85
2022/12/05 08:02:04;;;;;;;65.50;40.92;;;5.00;99.90;;;;;;5034287;28;20035;-84
2022/12/05 08:04:30;;;;;;;56.95;35.08;;;5.00;99.90;;;;;;5033851;28;20022;-84
2022/12/05 08:06:56;;;;;;;58.45;34.63;;;5.00;99.90;;;;;;5033681;28;20132;-85
2022/12/05 08:09:21;;;;;;;54.30;34.50;;;5.00;99.90;;;;;;5033075;28;20022;-86
2022/12/05 08:11:47;;;;;;;55.28;35.78;;;5.00;99.90;;;;;;5033607;28;20030;-85
2022/12/05 08:14:12;;;;;;;50.15;31.95;;;5.10;99.90;;;;;;5033286;28;20500;-84
2022/12/05 08:16:38;;;;;;;48.08;31.35;;;5.10;99.90;;;;;;5033531;28;20090;-84
2022/12/05 08:19:07;;;;;;;48.55;31.10;;;5.00;99.90;;;;;;5033038;28;20026;-85
2022/12/05 08:21:33;;;;;;;42.45;28.23;;;5.10;99.90;;;;;;5033299;28;20041;-84
2022/12/05 08:23:59;;;;;;;39.63;25.52;;;5.20;99.90;;;;;;5031926;28;20505;-85
2022/12/05 08:26:27;;;;;;;37.63;25.42;;;5.30;99.90;;;;;;5032798;28;20303;-85
2022/12/05 08:28:55;;;;;;;35.85;25.25;;;5.30;99.90;;;;;;5032714;28;20040;-84
2022/12/05 08:31:23;;;;;;;38.92;24.75;;;5.50;99.90;;;;;;5032837;28;20109;-84
2022/12/05 08:33:49;;;;;;;36.50;24.83;;;5.80;99.90;;;;;;5044980;28;20029;-85
2022/12/05 08:36:16;;;;;;;36.50;24.73;;;6.60;99.90;;;;;;5052827;28;20029;-84
2022/12/05 08:38:42;;;;;;;34.40;24.42;;;6.50;99.90;;;;;;5052706;28;20021;-85
2022/12/05 08:41:12;;;;;;;44.35;32.40;;;6.60;99.90;;;;;;5051552;28;20198;-84
2022/12/05 08:43:37;;;;;;;114.47;84.95;;;7.20;99.90;;;;;;5052456;28;20050;-84
2022/12/05 08:46:04;;;;;;;35.17;24.60;;;7.10;99.90;;;;;;5052794;28;20040;-84
2022/12/05 08:48:31;;;;;;;33.15;22.92;;;7.80;99.90;;;;;;5052471;28;20029;-84
2022/12/05 08:50:57;;;;;;;34.20;24.02;;;8.10;99.90;;;;;;5052603;28;20127;-84
2022/12/05 08:53:23;;;;;;;35.05;23.90;;;7.20;99.90;;;;;;5051430;28;20057;-84
2022/12/05 08:55:48;;;;;;;36.67;24.45;;;6.90;99.90;;;;;;5052716;28;20061;-84
2022/12/05 08:58:14;;;;;;;39.55;24.40;;;6.90;99.90;;;;;;5041372;28;20033;-86
2022/12/05 09:00:40;;;;;;;44.78;24.45;;;6.70;99.90;;;;;;5031637;28;20274;-82
2022/12/05 09:03:06;;;;;;;42.78;25.42;;;6.30;99.90;;;;;;5030243;28;20036;-82
2022/12/05 09:05:32;;;;;;;35.28;22.30;;;6.30;99.90;;;;;;5031505;28;20029;-82
2022/12/05 09:07:58;;;;;;;36.35;21.98;;;6.40;99.90;;;;;;5032111;28;20041;-82
2022/12/05 09:10:25;;;;;;;30.42;20.70;;;6.50;99.90;;;;;;5031744;28;20059;-82
2022/12/05 09:12:51;;;;;;;29.38;20.38;;;6.60;99.90;;;;;;5033008;28;20078;-83
2022/12/05 09:15:17;;;;;;;35.00;21.98;;;6.50;99.90;;;;;;5032982;28;20270;-81
2022/12/05 09:17:43;;;;;;;29.38;20.25;;;6.40;99.90;;;;;;5031013;28;20025;-82
2022/12/05 09:20:10;;;;;;;30.88;20.52;;;6.50;99.90;;;;;;5032234;28;20513;-81
2022/12/05 09:22:36;;;;;;;31.88;20.88;;;6.40;99.90;;;;;;5031922;28;20434;-81
2022/12/05 09:25:03;;;;;;;38.13;27.95;;;6.50;99.90;;;;;;5019690;28;20084;-82
2022/12/05 09:27:29;;;;;;;29.58;19.27;;;6.80;99.90;;;;;;5012599;28;20398;-81
2022/12/05 09:29:54;;;;;;;26.88;18.42;;;7.00;99.90;;;;;;5012567;28;20030;-82
2022/12/05 09:32:20;;;;;;;27.05;18.73;;;6.60;99.90;;;;;;5030585;28;20033;-82
2022/12/05 09:34:45;;;;;;;25.48;18.27;;;6.30;99.90;;;;;;5041749;28;20046;-82
2022/12/05 09:37:11;;;;;;;34.58;20.50;;;6.40;99.90;;;;;;5032051;28;20406;-81
2022/12/05 09:39:37;;;;;;;29.10;18.75;;;6.60;99.90;;;;;;5033918;28;20108;-82
2022/12/05 09:42:08;;;;;;;32.58;19.08;;;6.90;99.90;;;;;;5035918;28;20059;-82
2022/12/05 09:44:55;;;;;;;28.40;18.15;;;6.90;99.90;;;;;;5036146;28;20441;-82
2022/12/05 09:47:26;;;;;;;36.00;20.20;;;7.20;99.90;;;;;;5035493;28;20037;-81
2022/12/05 09:50:10;;;;;;;30.27;18.83;;;7.20;99.90;;;;;;5035721;28;20032;-81
2022/12/05 09:53:04;;;;;;;27.90;18.17;;;7.10;99.90;;;;;;5035683;28;20393;-81
2022/12/05 09:55:53;;;;;;;27.60;18.85;;;7.10;99.90;;;;;;5036046;28;20434;-82
2022/12/05 09:58:40;;;;;;;37.60;23.55;;;7.00;99.90;;;;;;5035904;28;20030;-82
2022/12/05 10:01:33;;;;;;;27.40;19.15;;;6.90;99.90;;;;;;5035328;28;20082;-82
2022/12/05 10:04:23;;;;;;;26.67;18.23;;;6.80;99.90;;;;;;5035479;28;20038;-82
2022/12/05 10:06:54;;;;;;;22.42;16.98;;;6.90;99.90;;;;;;5035797;28;20029;-82
2022/12/05 10:10:01;;;;;;;26.30;18.25;;;7.70;99.90;;;;;;5034862;28;20376;-81
2022/12/05 10:12:48;;;;;;;22.27;16.83;;;10.00;99.90;;;;;;5034785;28;20079;-81
2022/12/05 10:15:17;;;;;;;24.45;18.48;;;9.10;99.90;;;;;;5030492;28;20163;-82
2022/12/05 10:17:51;;;;;;;23.48;16.02;;;8.80;99.90;;;;;;5034625;28;20025;-82
2022/12/05 10:20:29;;;;;;;19.45;14.45;;;8.90;99.90;;;;;;5035268;28;20109;-82
2022/12/05 10:23:11;;;;;;;19.00;13.60;;;9.40;99.90;;;;;;5035592;28;20041;-82
2022/12/05 10:25:38;;;;;;;17.25;14.20;;;9.50;99.90;;;;;;5034656;28;20045;-82
2022/12/05 10:28:14;;;;;;;17.80;13.73;;;9.90;99.90;;;;;;5034899;28;20037;-82
2022/12/05 10:30:41;;;;;;;16.67;13.52;;;10.20;99.90;;;;;;5035363;28;20481;-82
2022/12/05 10:33:21;;;;;;;12.55;10.75;;;10.30;99.90;;;;;;5036825;28;20030;-82
2022/12/05 10:35:52;;;;;;;16.63;13.43;;;11.60;99.90;;;;;;5034563;28;20017;-83
2022/12/05 10:38:29;;;;;;;15.63;12.55;;;11.30;99.90;;;;;;5035017;28;20040;-82
2022/12/05 10:41:02;;;;;;;18.00;14.35;;;10.80;99.90;;;;;;5034338;28;20040;-82
2022/12/05 10:43:31;;;;;;;18.88;13.88;;;13.90;99.90;;;;;;5033375;28;20430;-83
2022/12/05 10:45:57;;;;;;;16.83;13.88;;;16.30;99.90;;;;;;5034605;28;20103;-83
2022/12/05 10:48:24;;;;;;;19.20;15.23;;;14.00;99.90;;;;;;5034355;28;20057;-83
2022/12/05 10:50:55;;;;;;;19.52;14.82;;;13.40;99.90;;;;;;5034146;28;20390;-82
2022/12/05 10:53:27;;;;;;;15.70;12.85;;;13.50;99.90;;;;;;5033717;28;20034;-83
2022/12/05 10:55:53;;;;;;;15.13;13.23;;;12.50;99.90;;;;;;5033886;28;20136;-83
2022/12/05 10:58:24;;;;;;;16.85;13.57;;;11.80;99.90;;;;;;5034428;28;20033;-83
2022/12/05 11:00:55;;;;;;;15.98;13.32;;;13.10;99.90;;;;;;5033536;28;20432;-83
2022/12/05 11:03:33;;;;;;;15.07;12.55;;;14.90;99.90;;;;;;5033521;28;20287;-83
2022/12/05 11:06:24;;;;;;;16.05;13.20;;;14.90;99.90;;;;;;5033463;28;20022;-84
2022/12/05 11:09:13;;;;;;;15.18;13.27;;;18.80;99.90;;;;;;5030987;28;20041;-85
2022/12/05 11:11:39;;;;;;;15.18;12.27;;;16.20;99.90;;;;;;5034225;28;20100;-83
2022/12/05 11:14:25;;;;;;;15.70;13.20;;;14.50;99.90;;;;;;5033627;28;20132;-84
2022/12/05 11:16:57;;;;;;;15.23;12.55;;;13.60;99.90;;;;;;5033755;28;20044;-84
2022/12/05 11:19:35;;;;;;;15.80;13.95;;;13.70;99.90;;;;;;5034383;28;20036;-84
2022/12/05 11:22:02;;;;;;;16.85;13.55;;;17.50;99.90;;;;;;5034076;28;20021;-84
2022/12/05 11:24:29;;;;;;;14.95;12.27;;;20.00;99.90;;;;;;5033699;28;20032;-83
2022/12/05 11:26:57;;;;;;;16.60;12.52;;;20.90;99.90;;;;;;5033570;28;20505;-83
2022/12/05 11:29:37;;;;;;;13.85;12.32;;;23.20;99.90;;;;;;5033604;28;20475;-82
2022/12/05 11:32:05;;;;;;;15.10;12.20;;;22.20;99.90;;;;;;5016398;28;20068;-83
2022/12/05 11:34:43;;;;;;;14.65;12.82;;;22.40;99.90;;;;;;5052443;28;20420;-83
2022/12/05 11:37:17;;;;;;;14.40;12.77;;;23.60;99.90;;;;;;5050200;28;20091;-83
2022/12/05 11:39:42;;;;;;;14.98;13.18;;;24.60;99.90;;;;;;5033448;28;20056;-84
2022/12/05 11:42:08;;;;;;;18.52;13.85;;;24.30;99.90;;;;;;5033152;28;20057;-86
2022/12/05 11:44:54;;;;;;;14.68;13.18;;;23.90;99.90;;;;;;5033888;28;20026;-83
2022/12/05 11:47:45;;;;;;;14.65;13.23;;;21.30;99.90;;;;;;5033566;28;20401;-85
2022/12/05 11:50:19;;;;;;;15.15;13.32;;;21.20;99.90;;;;;;5032993;28;20417;-84
2022/12/05 11:53:07;;;;;;;16.38;13.73;;;23.00;99.90;;;;;;5032998;28;20022;-85
2022/12/05 11:55:47;;;;;;;13.85;12.45;;;24.60;99.90;;;;;;5031671;28;20033;-84
2022/12/05 11:58:15;;;;;;;18.50;14.48;;;24.80;99.90;;;;;;5033071;28;20025;-84
2022/12/05 12:00:53;;;;;;;15.70;14.00;;;25.30;99.90;;;;;;5033526;28;20021;-84
2022/12/05 12:03:42;;;;;;;15.70;14.20;;;24.80;99.90;;;;;;5032892;28;20036;-85
2022/12/05 12:06:22;;;;;;;16.08;13.23;;;23.00;99.90;;;;;;5032720;28;20489;-85
2022/12/05 12:09:10;;;;;;;14.77;13.38;;;23.10;99.90;;;;;;5033026;28;20037;-85
2022/12/05 12:11:47;;;;;;;14.40;13.00;;;22.00;99.90;;;;;;5033313;28;20036;-85
2022/12/05 12:14:46;;;;;;;14.73;13.25;;;22.80;99.90;;;;;;5032005;28;20447;-84
2022/12/05 12:17:24;;;;;;;13.77;12.48;;;23.30;99.90;;;;;;5032799;28;20056;-85
2022/12/05 12:19:55;;;;;;;14.35;13.00;;;24.30;99.90;;;;;;5032632;28;20033;-84
2022/12/05 12:22:42;;;;;;;14.10;12.57;;;24.50;99.90;;;;;;5032619;28;20442;-84
2022/12/05 12:25:23;;;;;;;14.32;12.82;;;24.90;99.90;;;;;;5032678;28;20048;-84
2022/12/05 12:28:04;;;;;;;14.43;13.13;;;24.90;99.90;;;;;;5031331;28;20033;-85
2022/12/05 12:31:00;;;;;;;15.57;12.48;;;23.90;99.90;;;;;;5032938;28;20029;-84
2022/12/05 12:33:45;;;;;;;13.65;12.35;;;23.80;99.90;;;;;;5041906;28;20111;-84
2022/12/05 12:36:31;;;;;;;14.45;13.05;;;23.50;99.90;;;;;;5052666;28;20564;-84
2022/12/05 12:39:21;;;;;;;14.13;12.73;;;23.10;99.90;;;;;;5052463;28;20453;-84
2022/12/05 12:42:08;;;;;;;15.75;12.63;;;22.90;99.90;;;;;;5052323;28;20039;-84
2022/12/05 12:44:49;;;;;;;13.43;12.23;;;23.80;99.90;;;;;;5052384;28;20029;-84
2022/12/05 12:47:39;;;;;;;12.85;11.45;;;23.70;99.90;;;;;;5052203;28;20082;-84
2022/12/05 12:50:13;;;;;;;23.80;13.23;;;24.30;99.90;;;;;;5050449;28;20025;-85
2022/12/05 12:52:53;;;;;;;12.90;11.65;;;24.10;99.90;;;;;;5052222;28;20052;-84
2022/12/05 12:55:44;;;;;;;45.58;13.55;;;24.30;99.90;;;;;;5052147;28;20049;-85
2022/12/05 12:58:39;;;;;;;15.13;12.30;;;24.30;99.90;;;;;;5052225;28;20354;-84
2022/12/05 13:01:26;;;;;;;10.95;9.95;;;24.10;99.90;;;;;;5051901;28;20031;-84
2022/12/05 13:04:01;;;;;;;12.30;10.35;;;23.80;99.90;;;;;;5052072;28;20021;-84
2022/12/05 13:06:33;;;;;;;11.90;10.80;;;23.30;99.90;;;;;;5051988;28;20102;-84
2022/12/05 13:09:03;;;;;;;11.65;10.45;;;23.10;99.90;;;;;;5051960;28;20024;-84